createdAt,value
2018-01-23T00:00:10.678Z,924.00
2018-01-23T00:01:42.495Z,924.01
2018-01-23T00:03:14.313Z,924.01
2018-01-23T00:04:46.130Z,924.11
2018-01-23T00:06:18.148Z,924.21
2018-01-23T00:07:49.770Z,924.32
2018-01-23T00:09:21.583Z,924.43
2018-01-23T00:10:53.400Z,924.51
2018-01-23T00:12:25.368Z,924.61
2018-01-23T00:13:57.034Z,924.67
2018-01-23T00:15:28.852Z,924.70
2018-01-23T00:17:00.669Z,924.77
2018-01-23T00:18:32.490Z,924.82
2018-01-23T00:20:04.303Z,924.80
2018-01-23T00:21:36.136Z,924.75
2018-01-23T00:23:07.937Z,924.71
2018-01-23T00:24:39.761Z,924.73
2018-01-23T00:26:11.572Z,924.76
2018-01-23T00:27:43.389Z,924.77
2018-01-23T00:29:15.206Z,924.83
2018-01-23T00:30:47.124Z,925.00
2018-01-23T00:32:18.840Z,924.96
2018-01-23T00:33:50.658Z,925.00
2018-01-23T00:35:22.476Z,924.98
2018-01-23T00:36:54.442Z,924.94
2018-01-23T00:38:26.110Z,924.92
2018-01-23T00:39:57.926Z,924.93
2018-01-23T00:41:29.743Z,924.96
2018-01-23T00:43:01.560Z,925.03
2018-01-23T00:44:33.378Z,924.97
2018-01-23T00:46:05.194Z,925.02
2018-01-23T00:47:37.011Z,925.06
2018-01-23T00:49:08.928Z,925.04
2018-01-23T00:50:40.645Z,924.94
2018-01-23T00:52:12.462Z,924.90
2018-01-23T00:53:44.280Z,924.96
2018-01-23T00:55:16.098Z,924.82
2018-01-23T00:56:47.913Z,924.80
2018-01-23T00:58:19.733Z,924.78
2018-01-23T00:59:51.548Z,924.77
2018-01-23T01:01:23.365Z,924.87
2018-01-23T01:02:55.183Z,924.99
2018-01-23T01:04:27.000Z,924.89
2018-01-23T01:05:58.817Z,924.81
2018-01-23T01:07:30.885Z,924.86
2018-01-23T01:09:02.453Z,924.86
2018-01-23T01:10:34.271Z,924.87
2018-01-23T01:12:06.086Z,924.83
2018-01-23T01:13:37.903Z,924.90
2018-01-23T01:15:09.720Z,924.94
2018-01-23T01:16:41.536Z,924.92
2018-01-23T01:18:13.355Z,924.99
2018-01-23T01:19:45.421Z,924.92
2018-01-23T01:21:16.993Z,924.91
2018-01-23T01:22:48.804Z,924.93
2018-01-23T01:24:20.635Z,924.86
2018-01-23T01:25:52.537Z,924.84
2018-01-23T01:27:24.254Z,924.83
2018-01-23T01:28:56.070Z,924.78
2018-01-23T01:30:27.888Z,924.82
2018-01-23T01:31:59.713Z,924.80
2018-01-23T01:33:31.523Z,924.72
2018-01-23T01:35:03.337Z,924.70
2018-01-23T01:36:35.153Z,924.71
2018-01-23T01:38:06.970Z,924.72
2018-01-23T01:39:38.786Z,924.79
2018-01-23T01:41:12.841Z,924.78
2018-01-23T01:42:42.419Z,924.80
2018-01-23T01:44:14.486Z,924.83
2018-01-23T01:45:46.052Z,924.78
2018-01-23T01:47:17.868Z,924.72
2018-01-23T01:48:49.698Z,924.69
2018-01-23T01:50:21.502Z,924.59
2018-01-23T01:51:53.316Z,924.52
2018-01-23T01:53:25.133Z,924.51
2018-01-23T01:54:56.950Z,924.47
2018-01-23T01:56:28.926Z,924.42
2018-01-23T01:58:00.583Z,924.46
2018-01-23T01:59:32.397Z,924.50
2018-01-23T02:01:04.214Z,924.55
2018-01-23T02:02:36.131Z,924.49
2018-01-23T02:04:07.900Z,924.57
2018-01-23T02:05:39.668Z,924.52
2018-01-23T02:07:11.479Z,924.52
2018-01-23T02:08:43.447Z,924.53
2018-01-23T02:10:15.113Z,924.49
2018-01-23T02:11:46.941Z,924.45
2018-01-23T02:13:18.747Z,924.40
2018-01-23T02:14:50.562Z,924.41
2018-01-23T02:16:22.419Z,924.37
2018-01-23T02:17:54.196Z,924.40
2018-01-23T02:19:26.013Z,924.41
2018-01-23T02:20:58.180Z,924.34
2018-01-23T02:22:29.647Z,924.35
2018-01-23T02:24:01.473Z,924.33
2018-01-23T02:25:33.332Z,924.35
2018-01-23T02:27:05.097Z,924.38
2018-01-23T02:28:36.914Z,924.39
2018-01-23T02:30:08.732Z,924.41
2018-01-23T02:31:40.549Z,924.46
2018-01-23T02:33:12.370Z,924.45
2018-01-23T02:34:44.184Z,924.46
2018-01-23T02:36:16.001Z,924.39
2018-01-23T02:37:47.818Z,924.46
2018-01-23T02:39:19.885Z,924.43
2018-01-23T02:40:51.459Z,924.40
2018-01-23T02:42:23.269Z,924.35
2018-01-23T02:43:55.087Z,924.39
2018-01-23T02:45:26.912Z,924.53
2018-01-23T02:46:58.730Z,924.63
2018-01-23T02:48:30.538Z,924.88
2018-01-23T02:50:02.356Z,925.05
2018-01-23T02:51:34.179Z,924.99
2018-01-23T02:53:05.990Z,924.81
2018-01-23T02:54:37.808Z,924.85
2018-01-23T02:56:09.623Z,924.79
2018-01-23T02:57:42.153Z,924.97
2018-01-23T02:59:13.258Z,925.02
2018-01-23T03:00:45.074Z,925.00
2018-01-23T03:02:16.892Z,924.94
2018-01-23T03:03:48.737Z,924.95
2018-01-23T03:05:20.591Z,924.87
2018-01-23T03:06:52.388Z,924.84
2018-01-23T03:08:24.159Z,924.84
2018-01-23T03:09:56.126Z,924.78
2018-01-23T03:11:27.793Z,924.77
2018-01-23T03:12:59.610Z,924.76
2018-01-23T03:14:31.427Z,924.75
2018-01-23T03:16:03.344Z,924.73
2018-01-23T03:17:35.060Z,924.70
2018-01-23T03:19:06.877Z,924.73
2018-01-23T03:20:38.694Z,924.65
2018-01-23T03:22:10.511Z,924.67
2018-01-23T03:23:42.332Z,924.63
2018-01-23T03:25:14.146Z,924.59
2018-01-23T03:26:45.963Z,924.60
2018-01-23T03:28:17.931Z,924.58
2018-01-23T03:29:49.597Z,924.54
2018-01-23T03:31:21.415Z,924.50
2018-01-23T03:32:53.232Z,924.44
2018-01-23T03:34:25.149Z,924.48
2018-01-23T03:35:56.866Z,924.55
2018-01-23T03:37:28.683Z,924.55
2018-01-23T03:39:00.501Z,924.50
2018-01-23T03:40:32.318Z,924.43
2018-01-23T03:42:04.135Z,924.39
2018-01-23T03:43:35.952Z,924.44
2018-01-23T03:45:07.770Z,924.39
2018-01-23T03:46:39.737Z,924.35
2018-01-23T03:48:11.404Z,924.26
2018-01-23T03:49:43.222Z,924.24
2018-01-23T03:51:15.042Z,924.18
2018-01-23T03:52:47.208Z,924.14
2018-01-23T03:54:18.675Z,924.15
2018-01-23T03:55:50.493Z,924.15
2018-01-23T03:57:22.311Z,924.08
2018-01-23T03:58:54.278Z,924.11
2018-01-23T04:00:25.946Z,924.10
2018-01-23T04:01:57.763Z,924.17
2018-01-23T04:03:29.583Z,924.19
2018-01-23T04:05:01.398Z,924.21
2018-01-23T04:06:33.216Z,924.13
2018-01-23T04:08:05.034Z,924.13
2018-01-23T04:09:36.852Z,924.07
2018-01-23T04:11:08.919Z,924.09
2018-01-23T04:12:40.486Z,924.11
2018-01-23T04:14:12.303Z,924.19
2018-01-23T04:15:44.121Z,924.23
2018-01-23T04:17:15.938Z,924.29
2018-01-23T04:18:47.760Z,924.28
2018-01-23T04:20:19.573Z,924.25
2018-01-23T04:21:51.391Z,924.31
2018-01-23T04:23:23.458Z,924.32
2018-01-23T04:24:55.026Z,924.31
2018-01-23T04:26:26.844Z,924.27
2018-01-23T04:27:58.661Z,924.25
2018-01-23T04:29:30.729Z,924.16
2018-01-23T04:31:02.307Z,924.17
2018-01-23T04:32:34.113Z,924.19
2018-01-23T04:34:05.930Z,924.11
2018-01-23T04:35:37.748Z,924.09
2018-01-23T04:37:09.566Z,924.11
2018-01-23T04:38:41.384Z,924.06
2018-01-23T04:40:13.202Z,923.99
2018-01-23T04:41:45.170Z,923.96
2018-01-23T04:43:16.837Z,923.97
2018-01-23T04:44:48.656Z,923.95
2018-01-23T04:46:20.473Z,923.95
2018-01-23T04:47:52.391Z,923.93
2018-01-23T04:49:24.108Z,923.89
2018-01-23T04:50:55.926Z,923.91
2018-01-23T04:52:27.744Z,923.92
2018-01-23T04:53:59.561Z,923.93
2018-01-23T04:55:31.379Z,923.82
2018-01-23T04:57:03.197Z,923.85
2018-01-23T04:58:35.014Z,923.84
2018-01-23T05:00:06.935Z,923.85
2018-01-23T05:01:38.650Z,923.80
2018-01-23T05:03:10.467Z,923.70
2018-01-23T05:04:42.285Z,923.73
2018-01-23T05:06:14.203Z,923.71
2018-01-23T05:07:45.924Z,923.68
2018-01-23T05:09:17.739Z,923.69
2018-01-23T05:10:49.557Z,923.66
2018-01-23T05:12:21.526Z,923.68
2018-01-23T05:13:53.193Z,923.63
2018-01-23T05:15:25.011Z,923.62
2018-01-23T05:16:56.829Z,923.60
2018-01-23T05:18:28.646Z,923.53
2018-01-23T05:20:00.465Z,923.52
2018-01-23T05:21:32.282Z,923.52
2018-01-23T05:23:04.101Z,923.50
2018-01-23T05:24:36.270Z,923.40
2018-01-23T05:26:07.736Z,923.40
2018-01-23T05:27:39.554Z,923.42
2018-01-23T05:29:11.372Z,923.41
2018-01-23T05:30:43.190Z,923.40
2018-01-23T05:32:15.010Z,923.41
2018-01-23T05:33:46.826Z,923.35
2018-01-23T05:35:18.644Z,923.33
2018-01-23T05:36:50.461Z,923.32
2018-01-23T05:38:22.280Z,923.33
2018-01-23T05:39:54.097Z,923.40
2018-01-23T05:41:25.916Z,923.38
2018-01-23T05:42:57.985Z,923.37
2018-01-23T05:44:29.551Z,923.33
2018-01-23T05:46:01.370Z,923.33
2018-01-23T05:47:33.186Z,923.28
2018-01-23T05:49:05.005Z,923.31
2018-01-23T05:50:36.823Z,923.30
2018-01-23T05:52:08.640Z,923.32
2018-01-23T05:53:40.459Z,923.30
2018-01-23T05:55:12.276Z,923.28
2018-01-23T05:56:44.093Z,923.31
2018-01-23T05:58:15.911Z,923.34
2018-01-23T05:59:47.729Z,923.35
2018-01-23T06:01:19.797Z,923.37
2018-01-23T06:02:51.365Z,923.33
2018-01-23T06:04:23.188Z,923.36
2018-01-23T06:05:54.999Z,923.23
2018-01-23T06:07:26.818Z,923.26
2018-01-23T06:08:58.635Z,923.26
2018-01-23T06:10:30.453Z,923.23
2018-01-23T06:12:02.278Z,923.20
2018-01-23T06:13:34.239Z,923.16
2018-01-23T06:15:05.907Z,923.16
2018-01-23T06:16:37.724Z,923.19
2018-01-23T06:18:09.542Z,923.20
2018-01-23T06:19:41.461Z,923.15
2018-01-23T06:21:13.183Z,923.16
2018-01-23T06:22:45.002Z,923.11
2018-01-23T06:24:16.813Z,923.07
2018-01-23T06:25:48.882Z,923.05
2018-01-23T06:27:20.449Z,923.05
2018-01-23T06:28:52.267Z,923.03
2018-01-23T06:30:24.086Z,923.01
2018-01-23T06:31:56.053Z,923.00
2018-01-23T06:33:27.720Z,922.98
2018-01-23T06:34:59.537Z,922.94
2018-01-23T06:36:31.358Z,922.95
2018-01-23T06:38:03.273Z,922.99
2018-01-23T06:39:34.991Z,923.02
2018-01-23T06:41:06.807Z,923.05
2018-01-23T06:42:38.625Z,922.98
2018-01-23T06:44:10.592Z,922.93
2018-01-23T06:45:42.259Z,922.93
2018-01-23T06:47:14.076Z,922.84
2018-01-23T06:48:45.893Z,922.82
2018-01-23T06:50:17.710Z,922.84
2018-01-23T06:51:49.527Z,922.83
2018-01-23T06:53:21.344Z,922.85
2018-01-23T06:54:53.218Z,922.85
2018-01-23T06:56:25.328Z,922.85
2018-01-23T06:57:56.794Z,922.85
2018-01-23T06:59:28.611Z,922.84
2018-01-23T07:01:00.427Z,922.82
2018-01-23T07:02:32.244Z,922.83
2018-01-23T07:04:04.062Z,922.83
2018-01-23T07:05:35.880Z,922.88
2018-01-23T07:07:07.697Z,922.90
2018-01-23T07:08:39.512Z,922.94
2018-01-23T07:10:11.328Z,922.89
2018-01-23T07:11:43.146Z,922.92
2018-01-23T07:13:14.962Z,922.91
2018-01-23T07:14:46.880Z,922.89
2018-01-23T07:16:18.597Z,922.92
2018-01-23T07:17:50.412Z,922.88
2018-01-23T07:19:22.229Z,922.88
2018-01-23T07:20:54.198Z,922.90
2018-01-23T07:22:25.862Z,922.90
2018-01-23T07:23:57.679Z,922.92
2018-01-23T07:25:29.497Z,922.93
2018-01-23T07:27:01.314Z,922.94
2018-01-23T07:28:33.130Z,922.95
2018-01-23T07:30:04.947Z,922.94
2018-01-23T07:31:36.764Z,922.96
2018-01-23T07:33:08.831Z,922.98
2018-01-23T07:34:40.398Z,922.93
2018-01-23T07:36:12.215Z,922.94
2018-01-23T07:37:44.032Z,922.93
2018-01-23T07:39:15.847Z,922.88
2018-01-23T07:40:47.666Z,922.89
2018-01-23T07:42:19.481Z,922.88
2018-01-23T07:43:51.304Z,922.85
2018-01-23T07:45:23.115Z,922.89
2018-01-23T07:46:54.932Z,922.91
2018-01-23T07:48:26.748Z,922.87
2018-01-23T07:49:58.564Z,922.81
2018-01-23T07:51:30.481Z,922.84
2018-01-23T07:53:02.198Z,922.80
2018-01-23T07:54:34.015Z,922.77
2018-01-23T07:56:05.878Z,922.80
2018-01-23T07:57:37.899Z,922.78
2018-01-23T07:59:09.465Z,922.79
2018-01-23T08:00:41.282Z,922.79
2018-01-23T08:02:13.098Z,922.80
2018-01-23T08:03:44.915Z,922.80
2018-01-23T08:05:16.732Z,922.82
2018-01-23T08:06:48.550Z,922.85
2018-01-23T08:08:20.367Z,922.77
2018-01-23T08:09:52.287Z,922.78
2018-01-23T08:11:24.004Z,922.82
2018-01-23T08:12:55.818Z,922.85
2018-01-23T08:14:27.635Z,922.89
2018-01-23T08:15:59.452Z,922.90
2018-01-23T08:17:31.269Z,922.95
2018-01-23T08:19:03.124Z,922.98
2018-01-23T08:20:34.936Z,923.08
2018-01-23T08:22:06.720Z,923.07
2018-01-23T08:23:38.537Z,923.09
2018-01-23T08:25:10.354Z,923.14
2018-01-23T08:26:42.365Z,923.20
2018-01-23T08:28:14.090Z,923.20
2018-01-23T08:29:45.806Z,923.17
2018-01-23T08:31:17.640Z,923.16
2018-01-23T08:32:49.444Z,923.19
2018-01-23T08:34:21.840Z,923.15
2018-01-23T08:35:53.418Z,923.19
2018-01-23T08:37:25.051Z,923.19
2018-01-23T08:38:56.861Z,923.17
2018-01-23T08:40:30.063Z,923.16
2018-01-23T08:42:01.095Z,923.14
2018-01-23T08:43:32.604Z,923.18
2018-01-23T08:45:04.855Z,923.15
2018-01-23T08:46:36.325Z,923.20
2018-01-23T08:48:07.863Z,923.23
2018-01-23T08:49:40.179Z,923.21
2018-01-23T08:51:11.383Z,923.23
2018-01-23T08:52:43.420Z,923.26
2018-01-23T08:54:15.040Z,923.29
2018-01-23T08:55:47.353Z,923.31
2018-01-23T08:57:19.227Z,923.33
2018-01-23T08:58:51.498Z,923.36
2018-01-23T09:00:23.073Z,923.36
2018-01-23T09:01:54.360Z,923.35
2018-01-23T09:03:27.056Z,923.37
2018-01-23T09:04:58.395Z,923.40
2018-01-23T09:06:30.375Z,923.38
2018-01-23T09:08:02.064Z,923.38
2018-01-23T09:09:33.080Z,923.40
2018-01-23T09:11:05.408Z,923.36
2018-01-23T09:12:37.449Z,923.37
2018-01-23T09:14:08.868Z,923.37
2018-01-23T09:15:41.774Z,923.38
2018-01-23T09:17:13.112Z,923.39
2018-01-23T09:18:44.590Z,923.39
2018-01-23T09:20:16.482Z,923.42
2018-01-23T09:21:48.628Z,923.47
2018-01-23T09:23:21.016Z,923.51
2018-01-23T09:24:51.504Z,923.59
2018-01-23T09:26:24.000Z,923.66
2018-01-23T09:27:55.941Z,923.73
2018-01-23T09:29:27.326Z,923.66
2018-01-23T09:30:59.528Z,923.74
2018-01-23T09:32:31.076Z,923.70
2018-01-23T09:34:02.662Z,923.65
2018-01-23T09:35:34.559Z,923.31
2018-01-23T09:37:06.151Z,923.31
2018-01-23T09:38:38.471Z,923.66
2018-01-23T09:40:09.981Z,923.67
2018-01-23T09:41:41.935Z,923.64
2018-01-23T09:43:13.111Z,923.54
2018-01-23T09:44:45.080Z,923.43
2018-01-23T09:46:17.236Z,923.57
2018-01-23T09:47:48.847Z,923.56
2018-01-23T09:49:21.823Z,923.68
2018-01-23T09:50:52.689Z,923.78
2018-01-23T09:52:25.163Z,923.76
2018-01-23T09:53:56.647Z,923.74
2018-01-23T09:55:27.692Z,923.71
2018-01-23T09:56:59.519Z,923.63
2018-01-23T09:58:31.552Z,923.59
2018-01-23T10:00:04.321Z,923.54
2018-01-23T10:01:35.724Z,923.60
2018-01-23T10:03:07.374Z,923.68
2018-01-23T10:04:39.326Z,923.59
2018-01-23T10:06:10.361Z,923.61
2018-01-23T10:07:42.235Z,923.59
2018-01-23T10:09:14.163Z,923.59
2018-01-23T10:10:47.761Z,923.72
2018-01-23T10:12:18.088Z,923.81
2018-01-23T10:13:50.013Z,923.96
2018-01-23T10:15:22.908Z,924.05
2018-01-23T10:16:54.082Z,924.12
2018-01-23T10:18:25.367Z,924.10
2018-01-23T10:19:57.841Z,924.16
2018-01-23T10:21:29.044Z,924.05
2018-01-23T10:23:01.125Z,924.10
2018-01-23T10:24:33.296Z,924.15
2018-01-23T10:26:04.887Z,924.07
2018-01-23T10:27:38.214Z,924.13
2018-01-23T10:29:08.358Z,924.19
2018-01-23T10:30:40.230Z,924.22
2018-01-23T10:32:11.988Z,924.13
2018-01-23T10:33:47.908Z,923.99
2018-01-23T10:35:17.456Z,924.14
2018-01-23T10:36:49.677Z,924.21
2018-01-23T10:38:19.791Z,924.29
2018-01-23T10:39:55.874Z,924.20
2018-01-23T10:41:23.233Z,924.23
2018-01-23T10:42:54.833Z,924.16
2018-01-23T10:44:27.948Z,924.38
2018-01-23T10:45:59.389Z,924.21
2018-01-23T10:47:30.271Z,924.20
2018-01-23T10:49:01.841Z,924.39
2018-01-23T10:50:33.481Z,924.20
2018-01-23T10:52:05.405Z,924.04
2018-01-23T10:53:39.717Z,924.02
2018-01-23T10:55:09.950Z,924.00
2018-01-23T10:56:41.242Z,924.09
2018-01-23T10:58:12.645Z,924.09
2018-01-23T10:59:47.741Z,924.08
2018-01-23T11:01:17.072Z,924.03
2018-01-23T11:02:49.992Z,924.29
2018-01-23T11:04:20.812Z,924.28
2018-01-23T11:05:52.374Z,924.13
2018-01-23T11:07:24.529Z,924.20
2018-01-23T11:08:57.010Z,924.20
2018-01-23T11:10:27.785Z,924.11
2018-01-23T11:12:01.184Z,924.42
2018-01-23T11:13:35.035Z,924.29
2018-01-23T11:15:04.375Z,924.19
2018-01-23T11:16:37.226Z,924.21
2018-01-23T11:18:06.422Z,924.18
2018-01-23T11:19:39.115Z,924.09
2018-01-23T11:21:10.278Z,924.10
2018-01-23T11:22:41.612Z,924.22
2018-01-23T11:24:13.488Z,924.16
2018-01-23T11:25:45.362Z,924.15
2018-01-23T11:27:18.217Z,924.25
2018-01-23T11:28:48.975Z,924.37
2018-01-23T11:30:21.048Z,924.19
2018-01-23T11:31:53.156Z,924.27
2018-01-23T11:33:25.552Z,924.12
2018-01-23T11:34:56.806Z,924.10
2018-01-23T11:36:31.680Z,924.10
2018-01-23T11:38:01.904Z,924.11
2018-01-23T11:39:33.532Z,924.07
2018-01-23T11:41:05.606Z,924.11
2018-01-23T11:42:36.823Z,924.06
2018-01-23T11:44:07.883Z,924.10
2018-01-23T11:45:39.467Z,924.13
2018-01-23T11:47:11.326Z,924.13
2018-01-23T11:48:43.477Z,924.09
2018-01-23T11:50:14.673Z,924.12
2018-01-23T11:51:46.250Z,924.17
2018-01-23T11:53:18.111Z,924.09
2018-01-23T11:54:50.083Z,924.08
2018-01-23T11:56:21.727Z,924.12
2018-01-23T11:57:53.678Z,924.06
2018-01-23T11:59:25.951Z,924.17
2018-01-23T12:00:58.669Z,924.14
2018-01-23T12:02:29.924Z,924.22
2018-01-23T12:04:01.002Z,924.18
2018-01-23T12:05:32.816Z,924.19
2018-01-23T12:07:05.261Z,924.15
2018-01-23T12:08:36.372Z,924.13
2018-01-23T12:10:08.276Z,924.13
2018-01-23T12:11:39.924Z,924.18
2018-01-23T12:13:11.744Z,924.12
2018-01-23T12:14:43.673Z,924.13
2018-01-23T12:16:15.446Z,924.16
2018-01-23T12:17:48.359Z,924.15
2018-01-23T12:19:19.982Z,924.23
2018-01-23T12:20:51.026Z,924.17
2018-01-23T12:22:22.752Z,924.09
2018-01-23T12:23:55.541Z,924.08
2018-01-23T12:25:26.590Z,924.13
2018-01-23T12:26:58.547Z,924.14
2018-01-23T12:28:30.010Z,924.13
2018-01-23T12:30:02.416Z,924.10
2018-01-23T12:31:34.550Z,924.09
2018-01-23T12:33:05.996Z,924.07
2018-01-23T12:34:38.781Z,924.01
2018-01-23T12:36:09.303Z,924.05
2018-01-23T12:37:40.973Z,924.03
2018-01-23T12:39:12.799Z,924.13
2018-01-23T12:40:44.645Z,924.12
2018-01-23T12:42:16.458Z,924.19
2018-01-23T12:43:48.282Z,924.10
2018-01-23T12:45:20.405Z,924.13
2018-01-23T12:46:51.938Z,924.10
2018-01-23T12:48:24.502Z,924.11
2018-01-23T12:49:55.604Z,924.12
2018-01-23T12:51:27.583Z,924.15
2018-01-23T12:52:59.253Z,924.15
2018-01-23T12:54:32.251Z,924.22
2018-01-23T12:56:03.939Z,924.16
2018-01-23T12:57:36.381Z,924.13
2018-01-23T12:59:06.925Z,924.10
2018-01-23T13:00:39.607Z,924.14
2018-01-23T13:02:11.287Z,924.13
2018-01-23T13:03:42.975Z,924.17
2018-01-23T13:05:13.876Z,924.20
2018-01-23T13:06:45.955Z,924.19
2018-01-23T13:08:17.579Z,924.19
2018-01-23T13:09:50.713Z,924.18
2018-01-23T13:11:22.293Z,924.23
2018-01-23T13:12:53.025Z,924.24
2018-01-23T13:14:24.870Z,924.21
2018-01-23T13:15:57.616Z,924.23
2018-01-23T13:17:30.472Z,924.18
2018-01-23T13:19:00.665Z,924.17
2018-01-23T13:20:32.214Z,924.20
2018-01-23T13:22:04.314Z,924.11
2018-01-23T13:23:35.830Z,924.17
2018-01-23T13:25:07.879Z,924.21
2018-01-23T13:26:41.236Z,924.21
2018-01-23T13:28:11.826Z,924.23
2018-01-23T13:29:44.288Z,924.24
2018-01-23T13:31:15.853Z,924.23
2018-01-23T13:32:51.178Z,924.23
2018-01-23T13:34:19.869Z,924.15
2018-01-23T13:35:51.225Z,924.13
2018-01-23T13:37:23.484Z,924.18
2018-01-23T13:38:54.293Z,924.23
2018-01-23T13:40:26.123Z,924.21
2018-01-23T13:41:57.835Z,924.23
2018-01-23T13:43:29.936Z,924.23
2018-01-23T13:45:03.081Z,924.27
2018-01-23T13:46:35.822Z,924.24
2018-01-23T13:48:05.152Z,924.14
2018-01-23T13:49:37.075Z,924.18
2018-01-23T13:51:10.901Z,924.17
2018-01-23T13:52:43.229Z,924.25
2018-01-23T13:54:12.496Z,924.22
2018-01-23T13:55:44.266Z,924.24
2018-01-23T13:57:16.094Z,924.25
2018-01-23T13:58:48.019Z,924.18
2018-01-23T14:00:19.750Z,924.22
2018-01-23T14:01:51.613Z,924.20
2018-01-23T14:03:23.462Z,924.16
2018-01-23T14:04:55.312Z,924.12
2018-01-23T14:06:28.216Z,924.14
2018-01-23T14:07:59.722Z,923.93
2018-01-23T14:09:30.806Z,924.10
2018-01-23T14:11:02.700Z,924.03
2018-01-23T14:12:34.403Z,924.11
2018-01-23T14:14:06.334Z,924.14
2018-01-23T14:15:38.062Z,924.13
2018-01-23T14:17:10.241Z,924.10
2018-01-23T14:18:41.788Z,924.11
2018-01-23T14:20:13.578Z,924.12
2018-01-23T14:21:45.520Z,924.09
2018-01-23T14:23:17.242Z,924.00
2018-01-23T14:24:49.071Z,923.96
2018-01-23T14:26:20.879Z,924.04
2018-01-23T14:27:52.779Z,923.96
2018-01-23T14:29:24.907Z,923.98
2018-01-23T14:30:57.289Z,923.85
2018-01-23T14:32:28.349Z,923.91
2018-01-23T14:34:00.351Z,923.86
2018-01-23T14:35:32.183Z,923.93
2018-01-23T14:37:04.489Z,923.95
2018-01-23T14:38:39.778Z,923.92
2018-01-23T14:40:11.142Z,923.88
2018-01-23T14:41:42.560Z,923.85
2018-01-23T14:43:22.763Z,923.88
2018-01-23T14:44:43.275Z,923.84
2018-01-23T14:46:15.426Z,923.85
2018-01-23T14:47:46.516Z,923.88
2018-01-23T14:49:18.349Z,923.94
2018-01-23T14:50:50.183Z,923.96
2018-01-23T14:52:22.014Z,924.00
2018-01-23T14:53:54.197Z,923.93
2018-01-23T14:55:26.237Z,923.88
2018-01-23T14:56:57.515Z,923.87
2018-01-23T14:58:29.786Z,923.81
2018-01-23T15:00:01.266Z,923.75
2018-01-23T15:01:33.011Z,923.68
2018-01-23T15:03:04.856Z,923.70
2018-01-23T15:04:36.711Z,923.65
2018-01-23T15:06:09.208Z,923.70
2018-01-23T15:07:40.346Z,923.65
2018-01-23T15:09:12.238Z,923.62
2018-01-23T15:10:44.124Z,923.62
2018-01-23T15:12:16.385Z,923.59
2018-01-23T15:13:47.994Z,923.44
2018-01-23T15:15:20.045Z,923.49
2018-01-23T15:16:52.139Z,923.54
2018-01-23T15:18:23.312Z,923.45
2018-01-23T15:19:55.047Z,923.50
2018-01-23T15:21:27.602Z,923.43
2018-01-23T15:22:59.089Z,923.42
2018-01-23T15:24:32.348Z,923.50
2018-01-23T15:26:04.415Z,923.38
2018-01-23T15:27:35.113Z,923.35
2018-01-23T15:29:07.060Z,923.33
2018-01-23T15:30:39.205Z,923.36
2018-01-23T15:32:10.469Z,923.35
2018-01-23T15:33:41.539Z,923.34
2018-01-23T15:35:13.620Z,923.31
2018-01-23T15:36:45.316Z,923.41
2018-01-23T15:38:17.510Z,923.30
2018-01-23T15:39:49.305Z,923.36
2018-01-23T15:41:20.724Z,923.39
2018-01-23T15:42:52.542Z,923.41
2018-01-23T15:44:24.584Z,923.43
2018-01-23T15:45:56.201Z,923.47
2018-01-23T15:47:28.038Z,923.50
2018-01-23T15:49:00.071Z,923.42
2018-01-23T15:50:31.739Z,923.40
2018-01-23T15:52:03.590Z,923.44
2018-01-23T15:53:35.424Z,923.31
2018-01-23T15:55:07.258Z,923.36
2018-01-23T15:56:39.048Z,923.34
2018-01-23T15:58:11.097Z,923.32
2018-01-23T15:59:42.714Z,923.29
2018-01-23T16:01:14.552Z,923.59
2018-01-23T16:02:46.415Z,923.51
2018-01-23T16:04:18.219Z,923.32
2018-01-23T16:05:50.055Z,923.16
2018-01-23T16:07:21.991Z,923.31
2018-01-23T16:08:53.722Z,923.53
2018-01-23T16:10:25.557Z,923.46
2018-01-23T16:11:57.387Z,923.35
2018-01-23T16:13:29.219Z,923.25
2018-01-23T16:15:01.052Z,923.20
2018-01-23T16:16:32.885Z,922.84
2018-01-23T16:18:04.718Z,922.83
2018-01-23T16:19:36.550Z,922.90
2018-01-23T16:21:08.385Z,922.88
2018-01-23T16:22:40.216Z,922.81
2018-01-23T16:24:12.045Z,922.97
2018-01-23T16:25:44.125Z,922.99
2018-01-23T16:27:15.710Z,922.59
2018-01-23T16:28:47.540Z,922.64
2018-01-23T16:30:19.365Z,922.57
2018-01-23T16:31:51.196Z,922.59
2018-01-23T16:33:23.024Z,922.81
2018-01-23T16:34:54.862Z,922.92
2018-01-23T16:36:26.700Z,922.82
2018-01-23T16:37:58.515Z,922.63
2018-01-23T16:39:30.358Z,922.59
2018-01-23T16:41:02.178Z,922.60
2018-01-23T16:42:34.028Z,922.54
2018-01-23T16:44:05.944Z,922.62
2018-01-23T16:45:37.733Z,922.82
2018-01-23T16:47:09.537Z,922.67
2018-01-23T16:48:41.347Z,922.63
2018-01-23T16:50:13.191Z,922.65
2018-01-23T16:51:45.013Z,922.50
2018-01-23T16:53:16.845Z,922.47
2018-01-23T16:54:48.676Z,922.71
2018-01-23T16:56:20.506Z,922.74
2018-01-23T16:57:52.338Z,922.66
2018-01-23T16:59:24.202Z,922.49
2018-01-23T17:00:56.021Z,922.64
2018-01-23T17:02:27.935Z,922.42
2018-01-23T17:03:59.690Z,922.49
2018-01-23T17:05:31.501Z,922.62
2018-01-23T17:07:03.334Z,922.77
2018-01-23T17:08:35.166Z,922.63
2018-01-23T17:10:07.000Z,922.40
2018-01-23T17:11:38.831Z,922.37
2018-01-23T17:13:10.662Z,922.36
2018-01-23T17:14:42.493Z,922.28
2018-01-23T17:16:14.323Z,922.38
2018-01-23T17:17:46.155Z,922.39
2018-01-23T17:19:17.982Z,922.62
2018-01-23T17:20:49.913Z,922.56
2018-01-23T17:22:21.641Z,922.55
2018-01-23T17:23:53.471Z,922.51
2018-01-23T17:25:25.302Z,922.21
2018-01-23T17:26:57.335Z,922.18
2018-01-23T17:28:28.965Z,922.16
2018-01-23T17:30:00.795Z,922.38
2018-01-23T17:31:32.628Z,922.42
2018-01-23T17:33:04.459Z,922.47
2018-01-23T17:34:36.297Z,922.73
2018-01-23T17:36:08.124Z,922.43
2018-01-23T17:37:39.964Z,922.39
2018-01-23T17:39:11.889Z,922.48
2018-01-23T17:40:43.621Z,922.45
2018-01-23T17:42:15.457Z,922.37
2018-01-23T17:43:47.283Z,922.22
2018-01-23T17:45:19.113Z,921.95
2018-01-23T17:46:50.943Z,921.81
2018-01-23T17:48:22.773Z,921.71
2018-01-23T17:49:54.601Z,921.68
2018-01-23T17:51:26.429Z,921.69
2018-01-23T17:52:58.257Z,921.79
2018-01-23T17:54:30.085Z,921.82
2018-01-23T17:56:01.912Z,921.88
2018-01-23T17:57:33.839Z,921.97
2018-01-23T17:59:05.566Z,922.03
2018-01-23T18:00:37.392Z,922.17
2018-01-23T18:02:09.217Z,922.07
2018-01-23T18:03:41.044Z,922.24
2018-01-23T18:05:12.870Z,921.89
2018-01-23T18:06:44.695Z,921.88
2018-01-23T18:08:16.540Z,921.88
2018-01-23T18:09:48.346Z,921.92
2018-01-23T18:11:20.173Z,921.97
2018-01-23T18:12:51.992Z,922.18
2018-01-23T18:14:23.814Z,922.29
2018-01-23T18:15:55.736Z,922.43
2018-01-23T18:17:27.459Z,922.50
2018-01-23T18:18:59.284Z,922.56
2018-01-23T18:20:31.102Z,922.79
2018-01-23T18:22:02.923Z,922.78
2018-01-23T18:23:34.742Z,922.98
2018-01-23T18:25:06.562Z,923.06
2018-01-23T18:26:38.435Z,923.18
2018-01-23T18:28:10.213Z,922.60
2018-01-23T18:29:42.018Z,922.60
2018-01-23T18:31:13.838Z,922.58
2018-01-23T18:32:45.654Z,922.71
2018-01-23T18:34:17.571Z,922.58
2018-01-23T18:35:49.295Z,922.59
2018-01-23T18:37:21.105Z,922.82
2018-01-23T18:38:52.942Z,922.62
2018-01-23T18:40:24.738Z,922.61
2018-01-23T18:41:56.554Z,922.71
2018-01-23T18:43:28.370Z,922.60
2018-01-23T18:45:00.186Z,922.44
2018-01-23T18:48:50.824Z,922.34
2018-01-23T18:50:22.638Z,922.21
2018-01-23T18:51:54.453Z,922.27
2018-01-23T18:53:26.270Z,922.19
2018-01-23T18:54:58.184Z,922.22
2018-01-23T18:56:29.900Z,922.10
2018-01-23T18:58:01.716Z,922.12
2018-01-23T18:59:33.532Z,922.01
2018-01-23T19:01:05.353Z,921.99
2018-01-23T19:02:37.164Z,922.08
2018-01-23T19:04:08.981Z,922.08
2018-01-23T19:05:41.141Z,922.15
2018-01-23T19:07:12.613Z,922.23